(541)-479-2230 [email protected]

City of Grants Pass

Grants Pass AirportĀ 

Current Weather Conditions Medford Airport:
MEDFORD, OR
Metar
KMFR 211653Z 00000KT 8SM SCT006 09/08 A2997 RMK AO2 SLP148 T00940083

16:53 UTC

Wind: 0° 0kt

Visibility: 8 SM

Sky: SCT 600 ft

Temp: 9 deg C / 48.2 deg F

Dewpoint: 8 deg C / 46.4 deg F

Pressure: 29.97 inHg

TAF
KMFR 211410Z 2114/2212 VRB02KT 2SM BR BCFG SCT001 BKN020 BKN040 TEMPO 2114/2115 1/4SM FG BKN001 FM211600 32003KT P6SM SCT025 BKN050 FM212100 33005KT P6SM FEW035 SCT060 BKN150
Pireps (2)
MFR UA /OV MFR/TM 1613/FL017/TP C180/SK SK/BKN017-TOP020
MFR UA /OV MFR/TM 1544/FL002/TP DASH 8D/RM AIRPORT AT MINIMUMS ON ILS14 FINAL -ZSE